sensor_id;sensor_type;location;lat;lon;timestamp;P1;durP1;ratioP1;P2;durP2;ratioP2
5995;SDS011;3026;53.612;7.278;2023-07-09T00:01:41;6.30;;;4.03;;
5995;SDS011;3026;53.612;7.278;2023-07-09T00:04:08;6.77;;;3.60;;
5995;SDS011;3026;53.612;7.278;2023-07-09T00:06:37;4.87;;;3.70;;
5995;SDS011;3026;53.612;7.278;2023-07-09T00:09:06;5.67;;;3.03;;
5995;SDS011;3026;53.612;7.278;2023-07-09T00:11:38;4.80;;;4.23;;
5995;SDS011;3026;53.612;7.278;2023-07-09T00:14:05;6.33;;;3.50;;
5995;SDS011;3026;53.612;7.278;2023-07-09T00:16:32;4.03;;;3.20;;
5995;SDS011;3026;53.612;7.278;2023-07-09T00:19:00;6.83;;;4.00;;
5995;SDS011;3026;53.612;7.278;2023-07-09T00:21:28;3.97;;;3.50;;
5995;SDS011;3026;53.612;7.278;2023-07-09T00:23:59;4.83;;;4.10;;
5995;SDS011;3026;53.612;7.278;2023-07-09T00:26:29;4.07;;;3.67;;
5995;SDS011;3026;53.612;7.278;2023-07-09T00:28:57;5.77;;;4.00;;
5995;SDS011;3026;53.612;7.278;2023-07-09T00:31:24;4.03;;;3.47;;
5995;SDS011;3026;53.612;7.278;2023-07-09T00:33:51;6.93;;;4.23;;
5995;SDS011;3026;53.612;7.278;2023-07-09T00:36:18;7.93;;;3.90;;
5995;SDS011;3026;53.612;7.278;2023-07-09T00:38:53;5.53;;;3.93;;
5995;SDS011;3026;53.612;7.278;2023-07-09T00:41:21;4.13;;;3.73;;
5995;SDS011;3026;53.612;7.278;2023-07-09T00:43:49;5.67;;;3.97;;
5995;SDS011;3026;53.612;7.278;2023-07-09T00:49:24;7.40;;;3.70;;
5995;SDS011;3026;53.612;7.278;2023-07-09T00:51:55;3.93;;;3.53;;
5995;SDS011;3026;53.612;7.278;2023-07-09T00:54:28;6.53;;;4.30;;
5995;SDS011;3026;53.612;7.278;2023-07-09T00:57:02;5.60;;;3.77;;
5995;SDS011;3026;53.612;7.278;2023-07-09T00:59:35;3.63;;;3.33;;
5995;SDS011;3026;53.612;7.278;2023-07-09T01:02:03;5.50;;;3.80;;
5995;SDS011;3026;53.612;7.278;2023-07-09T01:04:30;3.93;;;3.57;;
5995;SDS011;3026;53.612;7.278;2023-07-09T01:06:58;6.10;;;3.47;;
5995;SDS011;3026;53.612;7.278;2023-07-09T01:09:25;4.10;;;3.63;;
5995;SDS011;3026;53.612;7.278;2023-07-09T01:11:54;6.23;;;3.93;;
5995;SDS011;3026;53.612;7.278;2023-07-09T01:14:26;6.30;;;4.00;;
5995;SDS011;3026;53.612;7.278;2023-07-09T01:16:55;6.90;;;4.23;;
5995;SDS011;3026;53.612;7.278;2023-07-09T01:19:27;6.40;;;4.00;;
5995;SDS011;3026;53.612;7.278;2023-07-09T01:21:57;8.57;;;3.93;;
5995;SDS011;3026;53.612;7.278;2023-07-09T01:27:16;7.07;;;4.30;;
5995;SDS011;3026;53.612;7.278;2023-07-09T01:29:44;9.10;;;4.20;;
5995;SDS011;3026;53.612;7.278;2023-07-09T01:32:14;8.67;;;4.20;;
5995;SDS011;3026;53.612;7.278;2023-07-09T01:34:43;4.70;;;4.20;;
5995;SDS011;3026;53.612;7.278;2023-07-09T01:37:14;6.07;;;4.00;;
5995;SDS011;3026;53.612;7.278;2023-07-09T01:39:42;5.83;;;4.30;;
5995;SDS011;3026;53.612;7.278;2023-07-09T01:42:09;5.33;;;4.13;;
5995;SDS011;3026;53.612;7.278;2023-07-09T01:44:36;4.57;;;4.17;;
5995;SDS011;3026;53.612;7.278;2023-07-09T01:47:03;8.77;;;4.57;;
5995;SDS011;3026;53.612;7.278;2023-07-09T01:49:31;5.70;;;3.63;;
5995;SDS011;3026;53.612;7.278;2023-07-09T01:51:59;7.93;;;4.77;;
5995;SDS011;3026;53.612;7.278;2023-07-09T01:54:29;5.23;;;4.17;;
5995;SDS011;3026;53.612;7.278;2023-07-09T01:59:40;4.23;;;3.63;;
5995;SDS011;3026;53.612;7.278;2023-07-09T02:02:07;4.07;;;3.67;;
5995;SDS011;3026;53.612;7.278;2023-07-09T02:04:34;4.63;;;3.80;;
5995;SDS011;3026;53.612;7.278;2023-07-09T02:07:01;5.40;;;4.17;;
5995;SDS011;3026;53.612;7.278;2023-07-09T02:09:29;6.33;;;4.20;;
5995;SDS011;3026;53.612;7.278;2023-07-09T02:11:56;4.73;;;4.33;;
5995;SDS011;3026;53.612;7.278;2023-07-09T02:14:23;4.67;;;4.00;;
5995;SDS011;3026;53.612;7.278;2023-07-09T02:16:50;4.90;;;4.50;;
5995;SDS011;3026;53.612;7.278;2023-07-09T02:19:17;6.10;;;4.40;;
5995;SDS011;3026;53.612;7.278;2023-07-09T02:21:44;5.87;;;4.27;;
5995;SDS011;3026;53.612;7.278;2023-07-09T02:24:11;6.93;;;4.13;;
5995;SDS011;3026;53.612;7.278;2023-07-09T02:26:39;6.10;;;4.43;;
5995;SDS011;3026;53.612;7.278;2023-07-09T02:29:06;5.67;;;4.77;;
5995;SDS011;3026;53.612;7.278;2023-07-09T02:31:33;6.97;;;4.50;;
5995;SDS011;3026;53.612;7.278;2023-07-09T02:34:00;5.20;;;4.70;;
5995;SDS011;3026;53.612;7.278;2023-07-09T02:36:28;4.70;;;4.30;;
5995;SDS011;3026;53.612;7.278;2023-07-09T02:38:55;4.83;;;4.17;;
5995;SDS011;3026;53.612;7.278;2023-07-09T02:41:22;5.57;;;4.37;;
5995;SDS011;3026;53.612;7.278;2023-07-09T02:43:50;6.20;;;4.67;;
5995;SDS011;3026;53.612;7.278;2023-07-09T02:46:17;6.37;;;5.00;;
5995;SDS011;3026;53.612;7.278;2023-07-09T02:48:44;5.63;;;4.73;;
5995;SDS011;3026;53.612;7.278;2023-07-09T02:51:11;4.80;;;4.30;;
5995;SDS011;3026;53.612;7.278;2023-07-09T02:53:37;4.93;;;4.37;;
5995;SDS011;3026;53.612;7.278;2023-07-09T02:56:04;6.50;;;4.97;;
5995;SDS011;3026;53.612;7.278;2023-07-09T02:58:31;6.77;;;4.70;;
5995;SDS011;3026;53.612;7.278;2023-07-09T03:00:59;7.77;;;4.33;;
5995;SDS011;3026;53.612;7.278;2023-07-09T03:03:26;7.40;;;4.50;;
5995;SDS011;3026;53.612;7.278;2023-07-09T03:05:53;6.37;;;5.50;;
5995;SDS011;3026;53.612;7.278;2023-07-09T03:08:22;7.20;;;4.87;;
5995;SDS011;3026;53.612;7.278;2023-07-09T03:10:48;5.90;;;5.27;;
5995;SDS011;3026;53.612;7.278;2023-07-09T03:13:15;5.70;;;5.10;;
5995;SDS011;3026;53.612;7.278;2023-07-09T03:15:42;6.47;;;5.07;;
5995;SDS011;3026;53.612;7.278;2023-07-09T03:18:10;5.33;;;4.83;;
5995;SDS011;3026;53.612;7.278;2023-07-09T03:20:37;5.17;;;4.67;;
5995;SDS011;3026;53.612;7.278;2023-07-09T03:23:05;6.93;;;4.93;;
5995;SDS011;3026;53.612;7.278;2023-07-09T03:25:32;5.77;;;5.13;;
5995;SDS011;3026;53.612;7.278;2023-07-09T03:27:59;6.30;;;4.87;;
5995;SDS011;3026;53.612;7.278;2023-07-09T03:30:26;6.67;;;5.13;;
5995;SDS011;3026;53.612;7.278;2023-07-09T03:32:52;6.00;;;4.57;;
5995;SDS011;3026;53.612;7.278;2023-07-09T03:35:21;5.23;;;4.63;;
5995;SDS011;3026;53.612;7.278;2023-07-09T03:37:48;6.53;;;4.57;;
5995;SDS011;3026;53.612;7.278;2023-07-09T03:40:20;7.30;;;5.17;;
5995;SDS011;3026;53.612;7.278;2023-07-09T03:42:48;7.97;;;5.20;;
5995;SDS011;3026;53.612;7.278;2023-07-09T03:45:15;6.90;;;4.70;;
5995;SDS011;3026;53.612;7.278;2023-07-09T03:47:42;7.60;;;4.93;;
5995;SDS011;3026;53.612;7.278;2023-07-09T03:50:09;5.83;;;4.90;;
5995;SDS011;3026;53.612;7.278;2023-07-09T03:52:38;7.03;;;5.37;;
5995;SDS011;3026;53.612;7.278;2023-07-09T03:55:05;6.03;;;5.03;;
5995;SDS011;3026;53.612;7.278;2023-07-09T03:57:33;12.03;;;5.10;;
5995;SDS011;3026;53.612;7.278;2023-07-09T04:00:00;6.97;;;5.00;;
5995;SDS011;3026;53.612;7.278;2023-07-09T04:02:28;6.50;;;5.50;;
5995;SDS011;3026;53.612;7.278;2023-07-09T04:04:55;6.80;;;4.73;;
5995;SDS011;3026;53.612;7.278;2023-07-09T04:07:22;5.60;;;5.10;;
5995;SDS011;3026;53.612;7.278;2023-07-09T04:09:50;8.33;;;5.30;;
5995;SDS011;3026;53.612;7.278;2023-07-09T04:12:17;7.20;;;5.10;;
5995;SDS011;3026;53.612;7.278;2023-07-09T04:14:44;6.53;;;5.73;;
5995;SDS011;3026;53.612;7.278;2023-07-09T04:17:11;6.70;;;5.50;;
5995;SDS011;3026;53.612;7.278;2023-07-09T04:19:38;15.97;;;5.77;;
5995;SDS011;3026;53.612;7.278;2023-07-09T04:22:05;5.37;;;4.87;;
5995;SDS011;3026;53.612;7.278;2023-07-09T04:24:32;7.50;;;5.90;;
5995;SDS011;3026;53.612;7.278;2023-07-09T04:27:00;11.03;;;6.00;;
5995;SDS011;3026;53.612;7.278;2023-07-09T04:29:28;8.70;;;5.77;;
5995;SDS011;3026;53.612;7.278;2023-07-09T04:31:55;7.37;;;5.50;;
5995;SDS011;3026;53.612;7.278;2023-07-09T04:34:22;8.20;;;5.67;;
5995;SDS011;3026;53.612;7.278;2023-07-09T04:36:49;8.53;;;5.57;;
5995;SDS011;3026;53.612;7.278;2023-07-09T04:39:16;6.93;;;5.10;;
5995;SDS011;3026;53.612;7.278;2023-07-09T04:41:42;6.53;;;5.00;;
5995;SDS011;3026;53.612;7.278;2023-07-09T04:44:11;6.90;;;5.90;;
5995;SDS011;3026;53.612;7.278;2023-07-09T04:46:38;8.07;;;6.13;;
5995;SDS011;3026;53.612;7.278;2023-07-09T04:49:05;7.67;;;5.53;;
5995;SDS011;3026;53.612;7.278;2023-07-09T04:51:32;6.63;;;5.27;;
5995;SDS011;3026;53.612;7.278;2023-07-09T04:53:59;7.37;;;5.53;;
5995;SDS011;3026;53.612;7.278;2023-07-09T04:56:28;9.40;;;5.87;;
5995;SDS011;3026;53.612;7.278;2023-07-09T04:58:55;11.30;;;5.80;;
5995;SDS011;3026;53.612;7.278;2023-07-09T05:01:23;9.93;;;5.77;;
5995;SDS011;3026;53.612;7.278;2023-07-09T05:03:50;5.70;;;4.93;;
5995;SDS011;3026;53.612;7.278;2023-07-09T05:06:17;6.97;;;5.77;;
5995;SDS011;3026;53.612;7.278;2023-07-09T05:08:44;7.07;;;5.27;;
5995;SDS011;3026;53.612;7.278;2023-07-09T05:11:11;5.73;;;5.10;;
5995;SDS011;3026;53.612;7.278;2023-07-09T05:13:37;9.53;;;5.90;;
5995;SDS011;3026;53.612;7.278;2023-07-09T05:16:04;6.47;;;5.23;;
5995;SDS011;3026;53.612;7.278;2023-07-09T05:18:33;7.67;;;5.63;;
5995;SDS011;3026;53.612;7.278;2023-07-09T05:21:00;5.97;;;5.37;;
5995;SDS011;3026;53.612;7.278;2023-07-09T05:23:27;6.67;;;5.83;;
5995;SDS011;3026;53.612;7.278;2023-07-09T05:25:55;6.43;;;5.80;;
5995;SDS011;3026;53.612;7.278;2023-07-09T05:28:22;5.97;;;5.43;;
5995;SDS011;3026;53.612;7.278;2023-07-09T05:30:50;6.77;;;5.37;;
5995;SDS011;3026;53.612;7.278;2023-07-09T05:33:17;6.43;;;5.83;;
5995;SDS011;3026;53.612;7.278;2023-07-09T05:35:46;6.50;;;5.90;;
5995;SDS011;3026;53.612;7.278;2023-07-09T05:38:13;6.80;;;6.10;;
5995;SDS011;3026;53.612;7.278;2023-07-09T05:40:40;8.10;;;5.87;;
5995;SDS011;3026;53.612;7.278;2023-07-09T05:43:08;7.77;;;5.43;;
5995;SDS011;3026;53.612;7.278;2023-07-09T05:45:35;9.53;;;5.90;;
5995;SDS011;3026;53.612;7.278;2023-07-09T05:48:02;8.77;;;6.07;;
5995;SDS011;3026;53.612;7.278;2023-07-09T05:50:29;7.83;;;5.73;;
5995;SDS011;3026;53.612;7.278;2023-07-09T05:53:00;6.73;;;6.00;;
5995;SDS011;3026;53.612;7.278;2023-07-09T05:55:27;9.50;;;5.63;;
5995;SDS011;3026;53.612;7.278;2023-07-09T05:57:54;6.70;;;5.77;;
5995;SDS011;3026;53.612;7.278;2023-07-09T06:00:21;7.90;;;6.00;;
5995;SDS011;3026;53.612;7.278;2023-07-09T06:02:48;8.40;;;5.57;;
5995;SDS011;3026;53.612;7.278;2023-07-09T06:05:15;8.70;;;5.93;;
5995;SDS011;3026;53.612;7.278;2023-07-09T06:07:42;8.73;;;5.83;;
5995;SDS011;3026;53.612;7.278;2023-07-09T06:10:10;7.90;;;5.70;;
5995;SDS011;3026;53.612;7.278;2023-07-09T06:12:38;9.53;;;6.10;;
5995;SDS011;3026;53.612;7.278;2023-07-09T06:15:06;6.77;;;5.87;;
5995;SDS011;3026;53.612;7.278;2023-07-09T06:17:34;6.37;;;5.60;;
5995;SDS011;3026;53.612;7.278;2023-07-09T06:20:01;7.20;;;6.20;;
5995;SDS011;3026;53.612;7.278;2023-07-09T06:22:27;7.83;;;5.70;;
5995;SDS011;3026;53.612;7.278;2023-07-09T06:24:54;7.83;;;5.90;;
5995;SDS011;3026;53.612;7.278;2023-07-09T06:27:23;9.63;;;6.00;;
5995;SDS011;3026;53.612;7.278;2023-07-09T06:29:49;6.43;;;5.80;;
5995;SDS011;3026;53.612;7.278;2023-07-09T06:32:17;7.37;;;6.03;;
5995;SDS011;3026;53.612;7.278;2023-07-09T06:34:44;6.50;;;5.40;;
5995;SDS011;3026;53.612;7.278;2023-07-09T06:37:11;8.07;;;6.40;;
5995;SDS011;3026;53.612;7.278;2023-07-09T06:39:37;6.93;;;5.23;;
5995;SDS011;3026;53.612;7.278;2023-07-09T06:42:05;8.67;;;6.27;;
5995;SDS011;3026;53.612;7.278;2023-07-09T06:44:33;7.83;;;6.00;;
5995;SDS011;3026;53.612;7.278;2023-07-09T06:47:00;7.87;;;6.40;;
5995;SDS011;3026;53.612;7.278;2023-07-09T06:49:27;7.53;;;6.30;;
5995;SDS011;3026;53.612;7.278;2023-07-09T06:51:54;9.60;;;6.53;;
5995;SDS011;3026;53.612;7.278;2023-07-09T06:54:21;7.23;;;5.60;;
5995;SDS011;3026;53.612;7.278;2023-07-09T06:56:48;5.97;;;5.37;;
5995;SDS011;3026;53.612;7.278;2023-07-09T06:59:15;6.65;;;6.05;;
5995;SDS011;3026;53.612;7.278;2023-07-09T07:01:43;6.43;;;5.78;;
5995;SDS011;3026;53.612;7.278;2023-07-09T07:04:10;7.65;;;5.82;;
5995;SDS011;3026;53.612;7.278;2023-07-09T07:06:37;7.18;;;5.80;;
5995;SDS011;3026;53.612;7.278;2023-07-09T07:09:04;6.15;;;5.60;;
5995;SDS011;3026;53.612;7.278;2023-07-09T07:11:31;7.55;;;5.70;;
5995;SDS011;3026;53.612;7.278;2023-07-09T07:13:58;8.68;;;6.20;;
5995;SDS011;3026;53.612;7.278;2023-07-09T07:16:24;7.15;;;5.95;;
5995;SDS011;3026;53.612;7.278;2023-07-09T07:18:53;7.15;;;5.95;;
5995;SDS011;3026;53.612;7.278;2023-07-09T07:21:20;6.60;;;5.82;;
5995;SDS011;3026;53.612;7.278;2023-07-09T07:23:46;7.40;;;6.00;;
5995;SDS011;3026;53.612;7.278;2023-07-09T07:26:13;8.02;;;6.25;;
5995;SDS011;3026;53.612;7.278;2023-07-09T07:28:40;7.18;;;5.75;;
5995;SDS011;3026;53.612;7.278;2023-07-09T07:31:08;7.97;;;6.00;;
5995;SDS011;3026;53.612;7.278;2023-07-09T07:33:35;7.43;;;5.47;;
5995;SDS011;3026;53.612;7.278;2023-07-09T07:36:05;7.90;;;5.88;;
5995;SDS011;3026;53.612;7.278;2023-07-09T07:38:33;9.32;;;5.82;;
5995;SDS011;3026;53.612;7.278;2023-07-09T07:41:00;6.03;;;5.43;;
5995;SDS011;3026;53.612;7.278;2023-07-09T07:43:27;7.28;;;5.70;;
5995;SDS011;3026;53.612;7.278;2023-07-09T07:45:54;6.47;;;5.85;;
5995;SDS011;3026;53.612;7.278;2023-07-09T07:48:23;6.43;;;5.82;;
5995;SDS011;3026;53.612;7.278;2023-07-09T07:50:50;7.93;;;6.20;;
5995;SDS011;3026;53.612;7.278;2023-07-09T07:53:19;7.35;;;6.50;;
5995;SDS011;3026;53.612;7.278;2023-07-09T07:55:45;6.68;;;5.47;;
5995;SDS011;3026;53.612;7.278;2023-07-09T07:58:12;7.68;;;6.10;;
5995;SDS011;3026;53.612;7.278;2023-07-09T08:00:39;7.65;;;6.28;;
5995;SDS011;3026;53.612;7.278;2023-07-09T08:03:06;6.63;;;5.93;;
5995;SDS011;3026;53.612;7.278;2023-07-09T08:05:33;7.95;;;6.13;;
5995;SDS011;3026;53.612;7.278;2023-07-09T08:08:00;9.50;;;6.55;;
5995;SDS011;3026;53.612;7.278;2023-07-09T08:10:28;6.80;;;5.70;;
5995;SDS011;3026;53.612;7.278;2023-07-09T08:12:55;6.25;;;5.63;;
5995;SDS011;3026;53.612;7.278;2023-07-09T08:15:22;8.20;;;5.63;;
5995;SDS011;3026;53.612;7.278;2023-07-09T08:17:49;10.25;;;6.53;;
5995;SDS011;3026;53.612;7.278;2023-07-09T08:20:16;7.80;;;5.53;;
5995;SDS011;3026;53.612;7.278;2023-07-09T08:22:43;6.28;;;5.68;;
5995;SDS011;3026;53.612;7.278;2023-07-09T08:25:11;8.73;;;5.72;;
5995;SDS011;3026;53.612;7.278;2023-07-09T08:27:39;8.82;;;6.13;;
5995;SDS011;3026;53.612;7.278;2023-07-09T08:30:06;7.00;;;5.90;;
5995;SDS011;3026;53.612;7.278;2023-07-09T08:32:34;7.90;;;6.18;;
5995;SDS011;3026;53.612;7.278;2023-07-09T08:35:01;8.13;;;6.05;;
5995;SDS011;3026;53.612;7.278;2023-07-09T08:37:28;7.68;;;5.90;;
5995;SDS011;3026;53.612;7.278;2023-07-09T08:39:55;10.05;;;5.82;;
5995;SDS011;3026;53.612;7.278;2023-07-09T08:42:24;7.57;;;6.18;;
5995;SDS011;3026;53.612;7.278;2023-07-09T08:45:03;7.50;;;6.13;;
5995;SDS011;3026;53.612;7.278;2023-07-09T08:47:42;7.93;;;6.50;;
5995;SDS011;3026;53.612;7.278;2023-07-09T08:50:19;8.52;;;6.22;;
5995;SDS011;3026;53.612;7.278;2023-07-09T08:52:49;6.95;;;5.88;;
5995;SDS011;3026;53.612;7.278;2023-07-09T08:55:24;7.93;;;6.70;;
5995;SDS011;3026;53.612;7.278;2023-07-09T08:57:54;7.60;;;5.90;;
5995;SDS011;3026;53.612;7.278;2023-07-09T09:00:28;8.00;;;5.82;;
5995;SDS011;3026;53.612;7.278;2023-07-09T09:03:00;9.02;;;5.68;;
5995;SDS011;3026;53.612;7.278;2023-07-09T09:05:31;6.80;;;6.10;;
5995;SDS011;3026;53.612;7.278;2023-07-09T09:08:02;8.65;;;6.63;;
5995;SDS011;3026;53.612;7.278;2023-07-09T09:10:36;9.00;;;6.72;;
5995;SDS011;3026;53.612;7.278;2023-07-09T09:13:10;11.07;;;6.68;;
5995;SDS011;3026;53.612;7.278;2023-07-09T09:15:40;12.05;;;6.38;;
5995;SDS011;3026;53.612;7.278;2023-07-09T09:18:17;8.23;;;6.40;;
5995;SDS011;3026;53.612;7.278;2023-07-09T09:20:47;7.03;;;6.30;;
5995;SDS011;3026;53.612;7.278;2023-07-09T09:23:19;10.05;;;6.85;;
5995;SDS011;3026;53.612;7.278;2023-07-09T09:25:48;8.52;;;6.20;;
5995;SDS011;3026;53.612;7.278;2023-07-09T09:28:19;9.60;;;6.47;;
5995;SDS011;3026;53.612;7.278;2023-07-09T09:30:49;9.63;;;6.97;;
5995;SDS011;3026;53.612;7.278;2023-07-09T09:33:16;10.20;;;6.50;;
5995;SDS011;3026;53.612;7.278;2023-07-09T09:35:44;11.52;;;7.28;;
5995;SDS011;3026;53.612;7.278;2023-07-09T09:38:15;11.25;;;7.93;;
5995;SDS011;3026;53.612;7.278;2023-07-09T09:40:43;7.57;;;6.78;;
5995;SDS011;3026;53.612;7.278;2023-07-09T09:43:14;9.13;;;6.88;;
5995;SDS011;3026;53.612;7.278;2023-07-09T09:45:44;9.30;;;6.50;;
5995;SDS011;3026;53.612;7.278;2023-07-09T09:48:16;9.90;;;6.47;;
5995;SDS011;3026;53.612;7.278;2023-07-09T09:50:44;8.80;;;6.20;;
5995;SDS011;3026;53.612;7.278;2023-07-09T09:53:16;12.20;;;6.80;;
5995;SDS011;3026;53.612;7.278;2023-07-09T09:55:46;7.85;;;6.50;;
5995;SDS011;3026;53.612;7.278;2023-07-09T09:58:15;7.40;;;6.53;;
5995;SDS011;3026;53.612;7.278;2023-07-09T10:00:46;12.07;;;7.63;;
5995;SDS011;3026;53.612;7.278;2023-07-09T10:03:17;9.75;;;7.15;;
5995;SDS011;3026;53.612;7.278;2023-07-09T10:05:45;8.32;;;7.13;;
5995;SDS011;3026;53.612;7.278;2023-07-09T10:08:22;6.88;;;6.18;;
5995;SDS011;3026;53.612;7.278;2023-07-09T10:11:00;10.00;;;7.53;;
5995;SDS011;3026;53.612;7.278;2023-07-09T10:13:35;8.38;;;6.90;;
5995;SDS011;3026;53.612;7.278;2023-07-09T10:16:10;9.32;;;6.90;;
5995;SDS011;3026;53.612;7.278;2023-07-09T10:18:49;8.32;;;6.38;;
5995;SDS011;3026;53.612;7.278;2023-07-09T10:21:22;8.32;;;6.75;;
5995;SDS011;3026;53.612;7.278;2023-07-09T10:23:59;12.23;;;6.78;;
5995;SDS011;3026;53.612;7.278;2023-07-09T10:26:38;8.85;;;7.35;;
5995;SDS011;3026;53.612;7.278;2023-07-09T10:29:16;12.68;;;7.00;;
5995;SDS011;3026;53.612;7.278;2023-07-09T10:31:58;10.00;;;7.32;;
5995;SDS011;3026;53.612;7.278;2023-07-09T10:34:38;8.27;;;7.10;;
5995;SDS011;3026;53.612;7.278;2023-07-09T10:37:18;14.15;;;7.30;;
5995;SDS011;3026;53.612;7.278;2023-07-09T10:40:02;10.23;;;6.40;;
5995;SDS011;3026;53.612;7.278;2023-07-09T10:42:35;10.65;;;7.18;;
5995;SDS011;3026;53.612;7.278;2023-07-09T10:45:08;10.50;;;7.20;;
5995;SDS011;3026;53.612;7.278;2023-07-09T10:47:38;8.35;;;6.03;;
5995;SDS011;3026;53.612;7.278;2023-07-09T10:50:12;9.20;;;7.13;;
5995;SDS011;3026;53.612;7.278;2023-07-09T10:52:46;7.43;;;6.35;;
5995;SDS011;3026;53.612;7.278;2023-07-09T10:55:20;8.32;;;6.50;;
5995;SDS011;3026;53.612;7.278;2023-07-09T10:57:54;7.05;;;6.35;;
5995;SDS011;3026;53.612;7.278;2023-07-09T11:00:27;7.78;;;6.97;;
5995;SDS011;3026;53.612;7.278;2023-07-09T11:03:02;8.18;;;6.03;;
5995;SDS011;3026;53.612;7.278;2023-07-09T11:05:41;7.85;;;5.95;;
5995;SDS011;3026;53.612;7.278;2023-07-09T11:08:10;7.85;;;6.43;;
5995;SDS011;3026;53.612;7.278;2023-07-09T11:10:40;8.07;;;6.30;;
5995;SDS011;3026;53.612;7.278;2023-07-09T11:13:14;9.40;;;6.85;;
5995;SDS011;3026;53.612;7.278;2023-07-09T11:15:46;8.15;;;6.90;;
5995;SDS011;3026;53.612;7.278;2023-07-09T11:18:20;7.50;;;6.28;;
5995;SDS011;3026;53.612;7.278;2023-07-09T11:20:58;7.22;;;6.40;;
5995;SDS011;3026;53.612;7.278;2023-07-09T11:23:35;6.95;;;6.20;;
5995;SDS011;3026;53.612;7.278;2023-07-09T11:26:10;8.15;;;6.18;;
5995;SDS011;3026;53.612;7.278;2023-07-09T11:28:39;8.02;;;6.32;;
5995;SDS011;3026;53.612;7.278;2023-07-09T11:31:08;10.77;;;9.75;;
5995;SDS011;3026;53.612;7.278;2023-07-09T11:33:47;13.50;;;9.35;;
5995;SDS011;3026;53.612;7.278;2023-07-09T11:36:25;10.10;;;7.40;;
5995;SDS011;3026;53.612;7.278;2023-07-09T11:38:53;8.38;;;6.80;;
5995;SDS011;3026;53.612;7.278;2023-07-09T11:41:28;11.82;;;10.65;;
5995;SDS011;3026;53.612;7.278;2023-07-09T11:44:09;9.95;;;6.90;;
5995;SDS011;3026;53.612;7.278;2023-07-09T11:46:43;8.85;;;7.05;;
5995;SDS011;3026;53.612;7.278;2023-07-09T11:49:18;9.35;;;6.82;;
5995;SDS011;3026;53.612;7.278;2023-07-09T11:51:50;13.63;;;7.43;;
5995;SDS011;3026;53.612;7.278;2023-07-09T11:54:21;7.18;;;6.00;;
5995;SDS011;3026;53.612;7.278;2023-07-09T11:56:55;8.57;;;6.35;;
5995;SDS011;3026;53.612;7.278;2023-07-09T11:59:22;10.95;;;5.93;;
5995;SDS011;3026;53.612;7.278;2023-07-09T12:01:49;10.98;;;9.75;;
5995;SDS011;3026;53.612;7.278;2023-07-09T12:04:20;9.27;;;8.38;;
5995;SDS011;3026;53.612;7.278;2023-07-09T12:06:52;8.93;;;7.75;;
5995;SDS011;3026;53.612;7.278;2023-07-09T12:09:23;9.60;;;8.48;;
5995;SDS011;3026;53.612;7.278;2023-07-09T12:11:50;12.20;;;8.93;;
5995;SDS011;3026;53.612;7.278;2023-07-09T12:14:18;10.93;;;8.63;;
5995;SDS011;3026;53.612;7.278;2023-07-09T12:16:47;10.40;;;8.15;;
5995;SDS011;3026;53.612;7.278;2023-07-09T12:19:16;11.18;;;8.15;;
5995;SDS011;3026;53.612;7.278;2023-07-09T12:21:46;15.85;;;8.85;;
5995;SDS011;3026;53.612;7.278;2023-07-09T12:24:21;10.18;;;7.85;;
5995;SDS011;3026;53.612;7.278;2023-07-09T12:26:49;9.27;;;8.00;;
5995;SDS011;3026;53.612;7.278;2023-07-09T12:29:18;10.27;;;8.30;;
5995;SDS011;3026;53.612;7.278;2023-07-09T12:31:45;9.32;;;8.10;;
5995;SDS011;3026;53.612;7.278;2023-07-09T12:34:13;13.73;;;10.05;;
5995;SDS011;3026;53.612;7.278;2023-07-09T12:36:41;9.00;;;8.10;;
5995;SDS011;3026;53.612;7.278;2023-07-09T12:39:12;8.60;;;7.68;;
5995;SDS011;3026;53.612;7.278;2023-07-09T12:41:42;8.82;;;7.93;;
5995;SDS011;3026;53.612;7.278;2023-07-09T12:44:14;8.70;;;7.88;;
5995;SDS011;3026;53.612;7.278;2023-07-09T12:46:43;11.05;;;7.78;;
5995;SDS011;3026;53.612;7.278;2023-07-09T12:49:17;11.10;;;8.23;;
5995;SDS011;3026;53.612;7.278;2023-07-09T12:51:48;6.82;;;6.22;;
5995;SDS011;3026;53.612;7.278;2023-07-09T12:54:16;8.65;;;7.35;;
5995;SDS011;3026;53.612;7.278;2023-07-09T12:56:45;10.27;;;7.22;;
5995;SDS011;3026;53.612;7.278;2023-07-09T12:59:16;12.05;;;7.28;;
5995;SDS011;3026;53.612;7.278;2023-07-09T13:01:48;8.02;;;6.72;;
5995;SDS011;3026;53.612;7.278;2023-07-09T13:04:17;10.38;;;8.05;;
5995;SDS011;3026;53.612;7.278;2023-07-09T13:06:44;8.23;;;7.00;;
5995;SDS011;3026;53.612;7.278;2023-07-09T13:09:22;10.95;;;7.47;;
5995;SDS011;3026;53.612;7.278;2023-07-09T13:11:51;9.70;;;7.18;;
5995;SDS011;3026;53.612;7.278;2023-07-09T13:14:19;7.15;;;6.53;;
5995;SDS011;3026;53.612;7.278;2023-07-09T13:16:47;7.85;;;6.65;;
5995;SDS011;3026;53.612;7.278;2023-07-09T13:19:15;7.45;;;6.72;;
5995;SDS011;3026;53.612;7.278;2023-07-09T13:21:42;9.18;;;7.43;;
5995;SDS011;3026;53.612;7.278;2023-07-09T13:24:17;9.63;;;7.53;;
5995;SDS011;3026;53.612;7.278;2023-07-09T13:26:47;8.35;;;7.20;;
5995;SDS011;3026;53.612;7.278;2023-07-09T13:29:16;9.73;;;7.75;;
5995;SDS011;3026;53.612;7.278;2023-07-09T13:31:47;8.63;;;7.57;;
5995;SDS011;3026;53.612;7.278;2023-07-09T13:34:19;10.20;;;7.38;;
5995;SDS011;3026;53.612;7.278;2023-07-09T13:36:48;10.70;;;7.05;;
5995;SDS011;3026;53.612;7.278;2023-07-09T13:39:15;10.52;;;7.20;;
5995;SDS011;3026;53.612;7.278;2023-07-09T13:41:43;8.45;;;7.28;;
5995;SDS011;3026;53.612;7.278;2023-07-09T13:44:12;9.30;;;7.80;;
5995;SDS011;3026;53.612;7.278;2023-07-09T13:46:42;8.18;;;7.25;;
5995;SDS011;3026;53.612;7.278;2023-07-09T13:49:10;8.65;;;7.45;;
5995;SDS011;3026;53.612;7.278;2023-07-09T13:51:39;8.85;;;7.30;;
5995;SDS011;3026;53.612;7.278;2023-07-09T13:54:12;10.13;;;7.25;;
5995;SDS011;3026;53.612;7.278;2023-07-09T13:56:44;14.73;;;8.13;;
5995;SDS011;3026;53.612;7.278;2023-07-09T13:59:13;8.30;;;7.50;;
5995;SDS011;3026;53.612;7.278;2023-07-09T14:01:40;8.60;;;7.38;;
5995;SDS011;3026;53.612;7.278;2023-07-09T14:04:10;8.82;;;7.25;;
5995;SDS011;3026;53.612;7.278;2023-07-09T14:06:39;9.70;;;7.60;;
5995;SDS011;3026;53.612;7.278;2023-07-09T14:09:06;9.48;;;7.45;;
5995;SDS011;3026;53.612;7.278;2023-07-09T14:11:35;8.60;;;7.30;;
5995;SDS011;3026;53.612;7.278;2023-07-09T14:14:10;9.48;;;7.13;;
5995;SDS011;3026;53.612;7.278;2023-07-09T14:16:45;11.43;;;7.63;;
5995;SDS011;3026;53.612;7.278;2023-07-09T14:19:15;10.20;;;8.05;;
5995;SDS011;3026;53.612;7.278;2023-07-09T14:21:43;9.13;;;7.47;;
5995;SDS011;3026;53.612;7.278;2023-07-09T14:24:16;10.80;;;7.65;;
5995;SDS011;3026;53.612;7.278;2023-07-09T14:26:46;12.55;;;8.07;;
5995;SDS011;3026;53.612;7.278;2023-07-09T14:29:13;11.73;;;7.22;;
5995;SDS011;3026;53.612;7.278;2023-07-09T14:31:41;9.75;;;7.85;;
5995;SDS011;3026;53.612;7.278;2023-07-09T14:34:18;9.70;;;8.70;;
5995;SDS011;3026;53.612;7.278;2023-07-09T14:36:47;7.68;;;6.97;;
5995;SDS011;3026;53.612;7.278;2023-07-09T14:39:14;10.20;;;7.60;;
5995;SDS011;3026;53.612;7.278;2023-07-09T14:41:41;10.65;;;8.10;;
5995;SDS011;3026;53.612;7.278;2023-07-09T14:44:15;8.32;;;7.18;;
5995;SDS011;3026;53.612;7.278;2023-07-09T14:46:48;7.50;;;6.78;;
5995;SDS011;3026;53.612;7.278;2023-07-09T14:49:15;11.23;;;7.80;;
5995;SDS011;3026;53.612;7.278;2023-07-09T14:51:44;8.68;;;6.75;;
5995;SDS011;3026;53.612;7.278;2023-07-09T14:54:22;12.30;;;7.18;;
5995;SDS011;3026;53.612;7.278;2023-07-09T14:56:50;8.43;;;7.53;;
5995;SDS011;3026;53.612;7.278;2023-07-09T14:59:18;7.72;;;6.30;;
5995;SDS011;3026;53.612;7.278;2023-07-09T15:01:46;9.15;;;7.18;;
5995;SDS011;3026;53.612;7.278;2023-07-09T15:04:25;8.63;;;6.75;;
5995;SDS011;3026;53.612;7.278;2023-07-09T15:06:56;8.05;;;6.60;;
5995;SDS011;3026;53.612;7.278;2023-07-09T15:09:25;8.23;;;6.93;;
5995;SDS011;3026;53.612;7.278;2023-07-09T15:11:54;9.00;;;6.95;;
5995;SDS011;3026;53.612;7.278;2023-07-09T15:14:23;7.20;;;6.50;;
5995;SDS011;3026;53.612;7.278;2023-07-09T15:16:52;9.30;;;6.43;;
5995;SDS011;3026;53.612;7.278;2023-07-09T15:19:20;7.10;;;6.40;;
5995;SDS011;3026;53.612;7.278;2023-07-09T15:21:49;7.10;;;6.40;;
5995;SDS011;3026;53.612;7.278;2023-07-09T15:24:19;8.85;;;7.30;;
5995;SDS011;3026;53.612;7.278;2023-07-09T15:26:50;11.80;;;6.93;;
5995;SDS011;3026;53.612;7.278;2023-07-09T15:29:19;8.15;;;6.80;;
5995;SDS011;3026;53.612;7.278;2023-07-09T15:31:46;8.82;;;6.43;;
5995;SDS011;3026;53.612;7.278;2023-07-09T15:34:13;10.32;;;7.20;;